createdAt,value
2023-03-29T00:01:46.141Z,95.42
2023-03-29T00:03:50.142Z,95.02
2023-03-29T00:05:57.772Z,95.13
2023-03-29T00:08:04.619Z,95.36
2023-03-29T00:10:10.264Z,95.76
2023-03-29T00:12:14.210Z,95.39
2023-03-29T00:14:17.716Z,95.64
2023-03-29T00:16:21.248Z,96.26
2023-03-29T00:18:25.221Z,96.24
2023-03-29T00:20:29.725Z,96.33
2023-03-29T00:22:33.460Z,96.27
2023-03-29T00:24:38.754Z,96.56
2023-03-29T00:26:42.498Z,96.84
2023-03-29T00:28:46.119Z,96.46
2023-03-29T00:30:50.804Z,96.43
2023-03-29T00:32:54.438Z,97.07
2023-03-29T00:34:58.089Z,96.85
2023-03-29T00:37:01.690Z,96.80
2023-03-29T00:39:05.594Z,96.78
2023-03-29T00:41:13.090Z,97.09
2023-03-29T00:43:17.335Z,96.82
2023-03-29T00:45:22.867Z,97.12
2023-03-29T00:47:31.044Z,96.87
2023-03-29T00:49:36.156Z,97.20
2023-03-29T00:51:42.859Z,96.94
2023-03-29T00:53:50.469Z,96.82
2023-03-29T00:55:58.599Z,96.84
2023-03-29T00:58:06.361Z,97.18
2023-03-29T01:00:14.299Z,97.28
2023-03-29T01:02:22.405Z,97.02
2023-03-29T01:04:31.200Z,97.02
2023-03-29T01:06:39.530Z,96.79
2023-03-29T01:08:49.178Z,96.78
2023-03-29T01:10:58.930Z,96.64
2023-03-29T01:13:10.158Z,96.58
2023-03-29T01:15:15.677Z,96.21
2023-03-29T01:17:22.285Z,96.17
2023-03-29T01:19:32.235Z,95.93
2023-03-29T01:21:41.040Z,95.75
2023-03-29T01:23:59.332Z,95.55
2023-03-29T01:26:12.747Z,95.67
2023-03-29T01:28:21.627Z,95.60
2023-03-29T01:30:31.884Z,95.34
2023-03-29T01:32:41.503Z,95.50
2023-03-29T01:34:51.750Z,95.58
2023-03-29T01:37:00.638Z,95.64
2023-03-29T01:39:07.357Z,95.28
2023-03-29T01:41:12.493Z,95.51
2023-03-29T01:43:22.610Z,95.61
2023-03-29T01:45:30.669Z,95.68
2023-03-29T01:47:46.877Z,95.57
2023-03-29T01:49:58.830Z,94.92
2023-03-29T01:52:09.215Z,94.77
2023-03-29T01:54:18.154Z,94.95
2023-03-29T01:56:25.313Z,94.89
2023-03-29T01:58:35.243Z,94.54
2023-03-29T02:00:41.722Z,94.30
2023-03-29T02:02:48.965Z,94.25
2023-03-29T02:04:56.342Z,93.77
2023-03-29T02:07:03.261Z,93.67
2023-03-29T02:09:08.631Z,93.42
2023-03-29T02:11:12.086Z,92.71
2023-03-29T02:13:16.187Z,92.31
2023-03-29T02:15:23.824Z,91.16
2023-03-29T02:17:29.478Z,90.43
2023-03-29T02:19:34.731Z,90.22
2023-03-29T02:21:48.564Z,89.47
2023-03-29T02:23:55.714Z,88.36
2023-03-29T02:25:59.056Z,88.21
2023-03-29T02:28:02.975Z,87.72
2023-03-29T02:30:11.016Z,87.53
2023-03-29T02:32:22.289Z,87.91
2023-03-29T02:34:30.889Z,86.63
2023-03-29T02:36:40.813Z,86.33
2023-03-29T02:38:45.030Z,85.39
2023-03-29T02:40:48.802Z,86.03
2023-03-29T02:42:52.245Z,85.66
2023-03-29T02:45:00.098Z,85.15
2023-03-29T02:47:07.883Z,85.38
2023-03-29T02:49:14.509Z,85.62
2023-03-29T02:51:21.382Z,85.47
2023-03-29T02:53:30.016Z,85.40
2023-03-29T02:55:35.543Z,85.25
2023-03-29T02:57:41.031Z,85.53
2023-03-29T02:59:45.175Z,85.47
2023-03-29T03:01:48.503Z,85.41
2023-03-29T03:03:52.888Z,85.43
2023-03-29T03:05:57.926Z,85.38
2023-03-29T03:08:02.761Z,85.17
2023-03-29T03:10:06.296Z,85.31
2023-03-29T03:12:09.781Z,85.77
2023-03-29T03:14:13.111Z,85.22
2023-03-29T03:16:16.542Z,85.64
2023-03-29T03:18:19.872Z,85.89
2023-03-29T03:20:23.638Z,86.22
2023-03-29T03:22:28.373Z,86.02
2023-03-29T03:24:32.763Z,86.46
2023-03-29T03:26:38.298Z,86.71
2023-03-29T03:28:42.405Z,87.01
2023-03-29T03:30:54.269Z,87.41
2023-03-29T03:33:00.283Z,87.63
2023-03-29T03:35:26.523Z,87.31
2023-03-29T03:37:31.355Z,87.31
2023-03-29T03:39:34.567Z,86.92
2023-03-29T03:41:39.622Z,87.35
2023-03-29T03:43:46.122Z,87.30
2023-03-29T03:45:49.476Z,86.94
2023-03-29T03:47:54.502Z,87.62
2023-03-29T03:50:20.391Z,87.19
2023-03-29T03:52:23.779Z,87.60
2023-03-29T03:54:28.697Z,87.55
2023-03-29T03:57:10.339Z,88.03
2023-03-29T03:59:22.517Z,88.08
2023-03-29T04:01:46.045Z,88.41
2023-03-29T04:03:53.403Z,88.88
2023-03-29T04:05:59.578Z,89.25
2023-03-29T04:08:23.549Z,89.12
2023-03-29T04:10:28.711Z,89.27
2023-03-29T04:12:52.596Z,89.55
2023-03-29T04:14:57.317Z,89.33
2023-03-29T04:17:02.925Z,89.49
2023-03-29T04:19:24.769Z,89.69
2023-03-29T04:21:28.175Z,89.82
2023-03-29T04:23:31.859Z,89.33
2023-03-29T04:25:37.145Z,89.24
2023-03-29T04:27:58.919Z,90.28
2023-03-29T04:30:20.041Z,90.66
2023-03-29T04:32:49.630Z,90.54
2023-03-29T04:34:53.604Z,90.48
2023-03-29T04:36:58.904Z,91.25
2023-03-29T04:39:02.375Z,92.06
2023-03-29T04:41:08.954Z,92.22
2023-03-29T04:43:32.623Z,93.31
2023-03-29T04:45:45.778Z,93.15
2023-03-29T04:48:01.022Z,93.70
2023-03-29T04:50:04.620Z,94.14
2023-03-29T04:52:15.893Z,95.27
2023-03-29T04:54:19.915Z,96.10
2023-03-29T04:56:54.460Z,96.36
2023-03-29T04:59:16.656Z,96.18
2023-03-29T05:01:19.986Z,97.25
2023-03-29T05:03:32.126Z,97.84
2023-03-29T05:05:40.399Z,98.35
2023-03-29T05:07:44.392Z,98.41
2023-03-29T05:09:48.972Z,98.72
2023-03-29T05:11:53.719Z,98.96
2023-03-29T05:14:02.483Z,98.72
2023-03-29T05:16:11.309Z,99.55
2023-03-29T05:18:15.713Z,99.84
2023-03-29T05:20:19.266Z,100.00
2023-03-29T05:22:24.183Z,100.00
2023-03-29T05:24:27.291Z,100.00
2023-03-29T05:26:33.859Z,100.00
2023-03-29T05:28:38.791Z,100.00
2023-03-29T05:30:43.766Z,100.00
2023-03-29T05:32:55.766Z,100.00
2023-03-29T05:35:01.964Z,100.00
2023-03-29T05:37:05.832Z,100.00
2023-03-29T05:39:21.848Z,100.00
2023-03-29T05:41:25.842Z,100.00
2023-03-29T05:44:02.602Z,99.85
2023-03-29T05:46:07.502Z,100.00
2023-03-29T05:48:12.662Z,100.00
2023-03-29T05:50:19.062Z,100.00
2023-03-29T05:52:22.477Z,99.92
2023-03-29T05:54:26.431Z,99.71
2023-03-29T05:56:30.517Z,99.73
2023-03-29T05:58:33.823Z,99.81
2023-03-29T06:00:38.936Z,99.73
2023-03-29T06:03:13.278Z,100.00
2023-03-29T06:05:22.352Z,99.57
2023-03-29T06:07:33.710Z,99.97
2023-03-29T06:09:56.034Z,99.85
2023-03-29T06:11:59.603Z,99.95
2023-03-29T06:14:13.613Z,99.76
2023-03-29T06:16:24.333Z,99.75
2023-03-29T06:18:29.455Z,99.70
2023-03-29T06:20:33.612Z,99.61
2023-03-29T06:22:43.203Z,99.44
2023-03-29T06:24:48.318Z,98.80
2023-03-29T06:27:06.026Z,99.30
2023-03-29T06:29:10.397Z,99.06
2023-03-29T06:31:16.460Z,99.07
2023-03-29T06:33:21.825Z,99.39
2023-03-29T06:35:24.812Z,99.57
2023-03-29T06:37:40.701Z,99.33
2023-03-29T06:39:54.782Z,99.38
2023-03-29T06:42:13.059Z,99.44
2023-03-29T06:44:44.014Z,99.50
2023-03-29T06:46:54.836Z,99.46
2023-03-29T06:48:59.480Z,99.70
2023-03-29T06:51:10.304Z,99.67
2023-03-29T06:53:15.732Z,99.33
2023-03-29T06:55:24.938Z,99.69
2023-03-29T06:57:30.874Z,99.77
2023-03-29T06:59:35.145Z,99.55
2023-03-29T07:02:01.316Z,99.64
2023-03-29T07:04:24.796Z,100.00
2023-03-29T07:06:58.789Z,100.00
2023-03-29T07:09:02.558Z,100.00
2023-03-29T07:11:26.295Z,100.00
2023-03-29T07:13:33.146Z,100.00
2023-03-29T07:15:41.000Z,100.00
2023-03-29T07:17:53.974Z,100.00
2023-03-29T07:19:59.495Z,100.00
2023-03-29T07:22:21.259Z,100.00
2023-03-29T07:24:33.169Z,100.00
2023-03-29T07:26:37.174Z,100.00
2023-03-29T07:28:40.846Z,100.00
2023-03-29T07:30:44.660Z,100.00
2023-03-29T07:32:53.691Z,100.00
2023-03-29T07:35:08.247Z,100.00
2023-03-29T07:37:12.392Z,100.00
2023-03-29T07:39:22.600Z,100.00
2023-03-29T07:41:46.216Z,100.00
2023-03-29T07:43:52.087Z,100.00
2023-03-29T07:46:02.804Z,100.00
2023-03-29T07:48:08.744Z,100.00
2023-03-29T07:50:38.883Z,100.00
2023-03-29T07:52:44.660Z,100.00
2023-03-29T07:54:48.275Z,100.00
2023-03-29T07:56:58.710Z,100.00
2023-03-29T07:59:13.645Z,100.00
2023-03-29T08:01:20.690Z,100.00
2023-03-29T08:03:43.186Z,100.00
2023-03-29T08:05:49.613Z,100.00
2023-03-29T08:07:53.436Z,100.00
2023-03-29T08:10:18.820Z,100.00
2023-03-29T08:12:31.686Z,100.00
2023-03-29T08:14:36.866Z,100.00
2023-03-29T08:16:51.682Z,100.00
2023-03-29T08:18:57.072Z,100.00
2023-03-29T08:21:07.493Z,100.00
2023-03-29T08:23:11.565Z,100.00
2023-03-29T08:25:41.668Z,100.00
2023-03-29T08:27:46.964Z,100.00
2023-03-29T08:29:57.341Z,100.00
2023-03-29T08:32:00.995Z,100.00
2023-03-29T08:34:04.987Z,100.00
2023-03-29T08:36:26.628Z,100.00
2023-03-29T08:38:34.067Z,100.00
2023-03-29T08:40:38.411Z,100.00
2023-03-29T08:43:24.345Z,100.00
2023-03-29T08:46:04.534Z,100.00
2023-03-29T08:48:21.035Z,100.00
2023-03-29T08:50:33.890Z,100.00
2023-03-29T08:52:41.573Z,100.00
2023-03-29T08:55:17.556Z,100.00
2023-03-29T08:57:46.559Z,100.00
2023-03-29T08:59:59.168Z,100.00
2023-03-29T09:02:06.243Z,100.00
2023-03-29T09:04:13.254Z,100.00
2023-03-29T09:06:26.402Z,100.00
2023-03-29T09:08:41.270Z,100.00
2023-03-29T09:10:49.325Z,100.00
2023-03-29T09:13:05.554Z,100.00
2023-03-29T09:15:16.815Z,100.00
2023-03-29T09:17:44.980Z,100.00
2023-03-29T09:20:02.398Z,100.00
2023-03-29T09:22:17.920Z,100.00
2023-03-29T09:24:43.942Z,100.00
2023-03-29T09:26:58.589Z,100.00
2023-03-29T09:29:21.153Z,100.00
2023-03-29T09:31:30.437Z,100.00
2023-03-29T09:33:43.023Z,100.00
2023-03-29T09:36:05.256Z,100.00
2023-03-29T09:38:14.213Z,100.00
2023-03-29T09:40:24.132Z,100.00
2023-03-29T09:42:42.889Z,100.00
2023-03-29T09:44:52.861Z,100.00
2023-03-29T09:47:09.514Z,100.00
2023-03-29T09:49:21.933Z,100.00
2023-03-29T09:51:30.649Z,100.00
2023-03-29T09:53:34.432Z,100.00
2023-03-29T09:55:52.408Z,100.00
2023-03-29T09:58:14.739Z,100.00
2023-03-29T10:00:22.611Z,100.00
2023-03-29T10:02:31.204Z,100.00
2023-03-29T10:04:35.872Z,100.00
2023-03-29T10:06:45.299Z,100.00
2023-03-29T10:08:52.887Z,100.00
2023-03-29T10:11:00.953Z,100.00
2023-03-29T10:13:08.247Z,100.00
2023-03-29T10:15:26.818Z,100.00
2023-03-29T10:17:42.961Z,100.00
2023-03-29T10:19:52.029Z,100.00
2023-03-29T10:21:56.663Z,100.00
2023-03-29T10:24:00.749Z,100.00
2023-03-29T10:26:08.856Z,100.00
2023-03-29T10:28:17.732Z,100.00
2023-03-29T10:30:24.596Z,100.00
2023-03-29T10:32:33.738Z,100.00
2023-03-29T10:34:37.994Z,100.00
2023-03-29T10:36:43.111Z,100.00
2023-03-29T10:38:46.617Z,100.00
2023-03-29T10:40:51.945Z,100.00
2023-03-29T10:43:00.730Z,100.00
2023-03-29T10:45:04.300Z,100.00
2023-03-29T10:47:16.414Z,100.00
2023-03-29T10:49:21.422Z,100.00
2023-03-29T10:51:27.907Z,100.00
2023-03-29T10:53:34.460Z,100.00
2023-03-29T10:55:44.191Z,100.00
2023-03-29T10:57:59.658Z,100.00
2023-03-29T11:00:11.583Z,100.00
2023-03-29T11:02:47.471Z,100.00
2023-03-29T11:04:57.023Z,100.00
2023-03-29T11:07:21.610Z,100.00
2023-03-29T11:09:39.565Z,100.00
2023-03-29T11:12:15.506Z,100.00
2023-03-29T11:14:33.444Z,100.00
2023-03-29T11:16:43.381Z,100.00
2023-03-29T11:19:04.973Z,100.00
2023-03-29T11:21:19.194Z,100.00
2023-03-29T11:23:37.706Z,100.00
2023-03-29T11:25:54.749Z,100.00
2023-03-29T11:28:20.455Z,100.00
2023-03-29T11:30:36.435Z,100.00
2023-03-29T11:32:49.799Z,100.00
2023-03-29T11:35:02.684Z,100.00
2023-03-29T11:37:19.467Z,100.00
2023-03-29T11:39:35.263Z,100.00
2023-03-29T11:41:42.452Z,100.00
2023-03-29T11:43:50.496Z,100.00
2023-03-29T11:46:00.102Z,100.00
2023-03-29T11:48:07.724Z,100.00
2023-03-29T11:50:19.831Z,100.00
2023-03-29T11:52:29.242Z,100.00
2023-03-29T11:54:39.672Z,100.00
2023-03-29T11:56:47.087Z,100.00
2023-03-29T11:58:59.172Z,98.59
2023-03-29T12:01:09.411Z,96.88
2023-03-29T12:03:15.482Z,94.69
2023-03-29T12:05:24.492Z,93.94
2023-03-29T12:07:34.326Z,92.21
2023-03-29T12:09:42.441Z,89.66
2023-03-29T12:11:54.301Z,88.17
2023-03-29T12:14:05.093Z,87.83
2023-03-29T12:16:17.001Z,87.39
2023-03-29T12:18:25.596Z,86.74
2023-03-29T12:20:32.201Z,86.58
2023-03-29T12:22:39.262Z,84.95
2023-03-29T12:24:45.533Z,84.59
2023-03-29T12:27:10.831Z,82.83
2023-03-29T12:29:41.652Z,83.28
2023-03-29T12:31:56.537Z,83.49
2023-03-29T12:34:18.779Z,83.22
2023-03-29T12:37:02.173Z,82.91
2023-03-29T12:39:39.008Z,81.36
2023-03-29T12:42:15.058Z,78.91
2023-03-29T12:45:00.127Z,79.05
2023-03-29T12:47:19.286Z,80.04
2023-03-29T12:49:29.758Z,80.17
2023-03-29T12:51:35.274Z,80.66
2023-03-29T12:53:41.863Z,80.05
2023-03-29T12:55:52.401Z,79.43
2023-03-29T12:58:03.445Z,78.73
2023-03-29T13:00:14.390Z,78.66
2023-03-29T13:02:37.242Z,78.07
2023-03-29T13:04:52.419Z,78.77
2023-03-29T13:07:03.444Z,78.32
2023-03-29T13:09:22.373Z,77.93
2023-03-29T13:11:29.481Z,78.03
2023-03-29T13:13:37.611Z,77.89
2023-03-29T13:15:41.349Z,77.80
2023-03-29T13:17:54.250Z,77.30
2023-03-29T13:20:18.893Z,76.42
2023-03-29T13:22:35.872Z,77.29
2023-03-29T13:24:54.323Z,76.85
2023-03-29T13:27:04.454Z,77.27
2023-03-29T13:29:31.350Z,77.10
2023-03-29T13:31:44.652Z,76.98
2023-03-29T13:33:58.855Z,76.44
2023-03-29T13:36:07.410Z,76.75
2023-03-29T13:38:20.397Z,76.05
2023-03-29T13:40:44.424Z,76.51
2023-03-29T13:43:00.136Z,76.82
2023-03-29T13:45:13.951Z,76.63
2023-03-29T13:47:55.003Z,76.96
2023-03-29T13:50:07.795Z,76.39
2023-03-29T13:52:17.395Z,77.01
2023-03-29T13:54:29.310Z,75.66
2023-03-29T13:56:40.010Z,75.31
2023-03-29T13:58:45.843Z,74.47
2023-03-29T14:00:55.967Z,74.69
2023-03-29T14:03:02.296Z,74.91
2023-03-29T14:05:11.051Z,75.17
2023-03-29T14:07:16.384Z,74.77
2023-03-29T14:09:21.619Z,74.50
2023-03-29T14:11:28.659Z,74.32
2023-03-29T14:13:32.403Z,75.04
2023-03-29T14:15:46.113Z,75.42
2023-03-29T14:17:50.079Z,75.32
2023-03-29T14:19:55.584Z,75.27
2023-03-29T14:22:02.545Z,75.04
2023-03-29T14:24:07.030Z,75.32
2023-03-29T14:26:15.643Z,75.31
2023-03-29T14:28:25.538Z,74.46
2023-03-29T14:30:32.323Z,74.47
2023-03-29T14:32:39.893Z,74.51
2023-03-29T14:34:44.621Z,74.45
2023-03-29T14:36:50.488Z,73.78
2023-03-29T14:38:59.884Z,73.45
2023-03-29T14:41:04.837Z,73.08
2023-03-29T14:43:11.370Z,72.20
2023-03-29T14:45:18.775Z,73.06
2023-03-29T14:47:27.706Z,72.68
2023-03-29T14:49:34.185Z,72.64
2023-03-29T14:51:41.543Z,72.77
2023-03-29T14:53:47.393Z,72.63
2023-03-29T14:55:53.685Z,72.86
2023-03-29T14:57:58.376Z,73.22
2023-03-29T15:00:08.470Z,71.30
2023-03-29T15:02:25.123Z,71.75
2023-03-29T15:04:34.638Z,71.87
2023-03-29T15:06:40.483Z,71.38
2023-03-29T15:08:54.390Z,71.81
2023-03-29T15:11:16.590Z,72.16
2023-03-29T15:13:25.115Z,72.31
2023-03-29T15:15:28.904Z,71.94
2023-03-29T15:17:47.621Z,71.86
2023-03-29T15:20:01.904Z,71.83
2023-03-29T15:22:11.631Z,72.07
2023-03-29T15:24:24.578Z,71.77
2023-03-29T15:26:32.368Z,71.78
2023-03-29T15:28:47.091Z,71.76
2023-03-29T15:31:04.734Z,71.94
2023-03-29T15:33:26.726Z,71.94
2023-03-29T15:35:30.875Z,72.11
2023-03-29T15:37:34.331Z,71.81
2023-03-29T15:39:44.198Z,71.54
2023-03-29T15:41:51.694Z,71.48
2023-03-29T15:43:55.840Z,71.30
2023-03-29T15:45:59.539Z,70.95
2023-03-29T15:48:05.033Z,71.11
2023-03-29T15:50:09.717Z,71.58
2023-03-29T15:52:13.552Z,71.55
2023-03-29T15:54:17.424Z,70.93
2023-03-29T15:56:24.007Z,70.73
2023-03-29T15:58:33.618Z,71.03
2023-03-29T16:00:40.947Z,71.15
2023-03-29T16:02:44.592Z,71.30
2023-03-29T16:04:48.219Z,71.01
2023-03-29T16:06:54.112Z,71.08
2023-03-29T16:08:59.096Z,71.44
2023-03-29T16:11:02.844Z,71.75
2023-03-29T16:13:06.617Z,71.99
2023-03-29T16:15:18.266Z,71.81
2023-03-29T16:17:21.758Z,72.02
2023-03-29T16:19:26.725Z,72.01
2023-03-29T16:21:29.890Z,72.23
2023-03-29T16:23:33.758Z,72.90
2023-03-29T16:25:40.044Z,73.06
2023-03-29T16:27:43.998Z,73.48
2023-03-29T16:29:47.718Z,73.72
2023-03-29T16:31:53.927Z,74.00
2023-03-29T16:33:57.538Z,74.22
2023-03-29T16:36:02.007Z,73.89
2023-03-29T16:38:06.792Z,74.21
2023-03-29T16:40:12.750Z,74.20
2023-03-29T16:42:16.589Z,73.56
2023-03-29T16:44:23.753Z,73.64
2023-03-29T16:46:27.827Z,73.52
2023-03-29T16:48:33.381Z,73.89
2023-03-29T16:50:36.977Z,73.95
2023-03-29T16:52:40.868Z,73.95
2023-03-29T16:54:44.435Z,74.58
2023-03-29T16:56:48.537Z,74.07
2023-03-29T16:58:52.724Z,74.35
2023-03-29T17:00:57.196Z,74.33
2023-03-29T17:03:02.015Z,74.43
2023-03-29T17:05:07.968Z,74.98
2023-03-29T17:07:11.425Z,75.02
2023-03-29T17:09:16.308Z,74.76
2023-03-29T17:11:23.415Z,74.98
2023-03-29T17:13:27.517Z,75.04
2023-03-29T17:15:31.304Z,75.01
2023-03-29T17:17:35.239Z,74.64
2023-03-29T17:19:38.895Z,75.04
2023-03-29T17:21:44.316Z,75.16
2023-03-29T17:23:47.819Z,74.52
2023-03-29T17:25:51.433Z,75.01
2023-03-29T17:27:55.261Z,74.62
2023-03-29T17:29:59.189Z,74.48
2023-03-29T17:32:02.848Z,75.07
2023-03-29T17:34:06.326Z,74.93
2023-03-29T17:36:10.959Z,74.70
2023-03-29T17:38:16.075Z,74.17
2023-03-29T17:40:19.836Z,74.42
2023-03-29T17:42:23.336Z,74.73
2023-03-29T17:44:27.152Z,74.74
2023-03-29T17:46:31.274Z,74.90
2023-03-29T17:48:34.902Z,74.67
2023-03-29T17:50:38.385Z,74.96
2023-03-29T17:52:42.153Z,75.36
2023-03-29T17:54:47.149Z,75.18
2023-03-29T17:56:50.932Z,75.12
2023-03-29T17:58:54.988Z,75.54
2023-03-29T18:00:59.045Z,76.08
2023-03-29T18:03:03.306Z,76.09
2023-03-29T18:05:08.490Z,76.17
2023-03-29T18:07:15.188Z,76.28
2023-03-29T18:09:19.507Z,75.96
2023-03-29T18:11:25.754Z,76.88
2023-03-29T18:13:34.054Z,76.81
2023-03-29T18:15:38.708Z,76.40
2023-03-29T18:17:48.145Z,76.76
2023-03-29T18:19:53.248Z,76.48
2023-03-29T18:21:57.764Z,76.50
2023-03-29T18:24:01.660Z,76.98
2023-03-29T18:26:08.486Z,76.38
2023-03-29T18:28:14.713Z,76.12
2023-03-29T18:30:18.740Z,76.38
2023-03-29T18:32:22.525Z,76.99
2023-03-29T18:34:26.594Z,76.63
2023-03-29T18:36:30.857Z,76.40
2023-03-29T18:38:36.011Z,76.33
2023-03-29T18:40:39.636Z,76.74
2023-03-29T18:42:43.666Z,77.01
2023-03-29T18:44:48.731Z,76.14
2023-03-29T18:46:52.520Z,76.33
2023-03-29T18:48:57.512Z,76.92
2023-03-29T18:51:01.002Z,77.18
2023-03-29T18:53:06.209Z,76.85
2023-03-29T18:55:10.770Z,77.44
2023-03-29T18:57:14.658Z,76.96
2023-03-29T18:59:18.731Z,78.13
2023-03-29T19:01:23.774Z,77.62
2023-03-29T19:03:27.846Z,78.29
2023-03-29T19:05:31.490Z,77.88
2023-03-29T19:07:35.172Z,78.29
2023-03-29T19:09:38.770Z,78.66
2023-03-29T19:11:42.440Z,78.39
2023-03-29T19:13:50.268Z,77.82
2023-03-29T19:15:55.625Z,78.44
2023-03-29T19:18:00.770Z,78.67
2023-03-29T19:20:10.071Z,78.70
2023-03-29T19:22:13.740Z,78.36
2023-03-29T19:24:17.941Z,78.74
2023-03-29T19:26:21.937Z,79.03
2023-03-29T19:28:26.551Z,79.88
2023-03-29T19:30:30.181Z,79.10
2023-03-29T19:32:33.959Z,79.60
2023-03-29T19:34:39.675Z,79.49
2023-03-29T19:36:43.397Z,79.79
2023-03-29T19:38:47.111Z,80.07
2023-03-29T19:40:52.256Z,79.67
2023-03-29T19:42:56.140Z,80.34
2023-03-29T19:45:00.290Z,80.84
2023-03-29T19:47:04.301Z,80.41
2023-03-29T19:49:09.273Z,80.93
2023-03-29T19:51:14.492Z,81.08
2023-03-29T19:53:18.835Z,80.35
2023-03-29T19:55:23.016Z,80.94
2023-03-29T19:57:28.652Z,80.56
2023-03-29T19:59:32.490Z,80.35
2023-03-29T20:01:39.753Z,81.00
2023-03-29T20:03:43.851Z,80.66
2023-03-29T20:05:48.622Z,80.36
2023-03-29T20:07:54.579Z,80.16
2023-03-29T20:09:58.910Z,80.30
2023-03-29T20:12:02.797Z,80.45
2023-03-29T20:14:06.584Z,79.85
2023-03-29T20:16:12.222Z,79.85
2023-03-29T20:18:16.701Z,80.76
2023-03-29T20:20:21.457Z,79.96
2023-03-29T20:22:26.266Z,80.17
2023-03-29T20:24:32.801Z,80.77
2023-03-29T20:26:37.154Z,80.44
2023-03-29T20:28:41.170Z,79.95
2023-03-29T20:30:45.165Z,79.68
2023-03-29T20:32:48.891Z,79.92
2023-03-29T20:34:52.796Z,79.86
2023-03-29T20:37:01.139Z,79.79
2023-03-29T20:39:05.730Z,79.98
2023-03-29T20:41:11.002Z,80.17
2023-03-29T20:43:18.539Z,80.27
2023-03-29T20:45:22.263Z,80.34
2023-03-29T20:47:27.798Z,80.32
2023-03-29T20:49:37.639Z,80.14
2023-03-29T20:51:42.966Z,80.74
2023-03-29T20:53:46.878Z,79.81
2023-03-29T20:55:50.634Z,80.41
2023-03-29T20:57:57.022Z,80.44
2023-03-29T21:00:01.983Z,80.38
2023-03-29T21:02:05.312Z,80.69
2023-03-29T21:04:11.151Z,80.52
2023-03-29T21:06:15.352Z,80.13
2023-03-29T21:08:19.137Z,80.86
2023-03-29T21:10:23.917Z,80.50
2023-03-29T21:12:27.955Z,80.48
2023-03-29T21:14:33.864Z,81.20
2023-03-29T21:16:41.848Z,81.10
2023-03-29T21:18:45.839Z,81.11
2023-03-29T21:20:49.950Z,80.75
2023-03-29T21:22:53.667Z,81.03
2023-03-29T21:24:57.408Z,81.85
2023-03-29T21:27:01.623Z,81.60
2023-03-29T21:29:05.475Z,82.28
2023-03-29T21:31:11.783Z,81.88
2023-03-29T21:33:15.664Z,81.85
2023-03-29T21:35:19.548Z,82.35
2023-03-29T21:37:23.631Z,82.34
2023-03-29T21:39:27.669Z,82.53
2023-03-29T21:41:31.613Z,82.86
2023-03-29T21:43:35.297Z,82.53
2023-03-29T21:45:39.254Z,82.61
2023-03-29T21:47:44.466Z,82.63
2023-03-29T21:49:48.126Z,83.05
2023-03-29T21:51:51.708Z,82.68
2023-03-29T21:53:55.359Z,83.10
2023-03-29T21:55:59.106Z,83.20
2023-03-29T21:58:02.745Z,83.24
2023-03-29T22:00:11.238Z,83.66
2023-03-29T22:02:15.142Z,83.43
2023-03-29T22:04:33.124Z,83.90
2023-03-29T22:06:37.168Z,83.87
2023-03-29T22:08:40.709Z,83.79
2023-03-29T22:10:44.242Z,84.12
2023-03-29T22:12:48.212Z,84.06
2023-03-29T22:14:51.692Z,85.02
2023-03-29T22:16:55.395Z,84.46
2023-03-29T22:18:59.642Z,84.69
2023-03-29T22:21:05.731Z,84.77
2023-03-29T22:23:09.554Z,84.69
2023-03-29T22:25:13.665Z,84.41
2023-03-29T22:27:17.284Z,84.63
2023-03-29T22:29:21.141Z,84.57
2023-03-29T22:31:26.192Z,84.98
2023-03-29T22:33:29.906Z,84.90
2023-03-29T22:35:35.884Z,84.80
2023-03-29T22:37:43.957Z,85.07
2023-03-29T22:39:47.675Z,84.90
2023-03-29T22:41:51.595Z,84.95
2023-03-29T22:43:57.101Z,85.08
2023-03-29T22:46:00.530Z,84.79
2023-03-29T22:48:04.212Z,85.45
2023-03-29T22:50:08.966Z,85.33
2023-03-29T22:52:12.514Z,85.58
2023-03-29T22:54:17.474Z,85.68
2023-03-29T22:56:20.671Z,86.81
2023-03-29T22:58:24.259Z,86.26
2023-03-29T23:00:27.880Z,86.60
2023-03-29T23:02:31.514Z,86.88
2023-03-29T23:04:36.802Z,86.93
2023-03-29T23:06:40.316Z,87.01
2023-03-29T23:08:43.809Z,87.60
2023-03-29T23:10:49.124Z,88.19
2023-03-29T23:12:53.889Z,89.24
2023-03-29T23:14:57.252Z,90.40
2023-03-29T23:17:00.823Z,90.89
2023-03-29T23:19:05.070Z,92.09
2023-03-29T23:21:10.630Z,92.83
2023-03-29T23:23:14.586Z,93.10
2023-03-29T23:25:18.148Z,94.23
2023-03-29T23:27:23.009Z,94.46
2023-03-29T23:29:26.490Z,96.01
2023-03-29T23:31:30.023Z,95.53
2023-03-29T23:33:35.869Z,95.82
2023-03-29T23:35:39.503Z,96.54
2023-03-29T23:37:43.290Z,96.49
2023-03-29T23:39:46.750Z,97.58
2023-03-29T23:41:50.340Z,98.39
2023-03-29T23:43:57.843Z,100.00
2023-03-29T23:46:02.638Z,100.00
2023-03-29T23:48:06.534Z,100.00
2023-03-29T23:50:12.172Z,100.00
2023-03-29T23:52:15.691Z,100.00
2023-03-29T23:54:19.119Z,100.00
2023-03-29T23:56:23.112Z,100.00
2023-03-29T23:58:26.703Z,100.00
